createdAt,value
2022-10-19T00:03:01.268Z,12.10
2022-10-19T00:07:05.672Z,12.00
2022-10-19T00:11:39.058Z,11.90
2022-10-19T00:15:42.537Z,11.90
2022-10-19T00:19:45.601Z,11.80
2022-10-19T00:23:50.575Z,11.70
2022-10-19T00:28:24.290Z,11.70
2022-10-19T00:32:27.435Z,11.80
2022-10-19T00:36:33.418Z,12.00
2022-10-19T00:41:08.630Z,12.50
2022-10-19T00:45:16.617Z,12.80
2022-10-19T00:49:23.174Z,13.10
2022-10-19T00:53:54.216Z,13.20
2022-10-19T00:57:58.986Z,13.30
2022-10-19T01:02:05.201Z,13.30
2022-10-19T01:06:09.414Z,13.30
2022-10-19T01:10:14.072Z,13.30
2022-10-19T01:14:56.634Z,13.20
2022-10-19T01:19:08.120Z,13.10
2022-10-19T01:23:30.345Z,12.90
2022-10-19T01:27:50.968Z,12.70
2022-10-19T01:32:01.338Z,12.60
2022-10-19T01:36:14.503Z,12.60
2022-10-19T01:40:25.954Z,12.60
2022-10-19T01:44:36.965Z,12.60
2022-10-19T01:48:46.012Z,12.60
2022-10-19T01:53:18.566Z,12.70
2022-10-19T01:57:26.939Z,12.80
2022-10-19T02:01:34.204Z,12.90
2022-10-19T02:06:07.592Z,13.00
2022-10-19T02:10:11.137Z,13.00
2022-10-19T02:14:17.994Z,13.00
2022-10-19T02:18:52.918Z,13.00
2022-10-19T02:22:57.885Z,13.10
2022-10-19T02:27:01.861Z,13.10
2022-10-19T02:31:05.546Z,13.20
2022-10-19T02:35:42.405Z,13.20
2022-10-19T02:39:47.108Z,13.10
2022-10-19T02:43:52.815Z,13.10
2022-10-19T02:48:00.311Z,13.10
2022-10-19T02:52:06.408Z,13.00
2022-10-19T02:56:41.628Z,13.00
2022-10-19T03:00:44.711Z,13.00
2022-10-19T03:05:21.345Z,13.10
2022-10-19T03:09:57.943Z,13.20
2022-10-19T03:14:36.132Z,13.20
2022-10-19T03:18:39.683Z,13.20
2022-10-19T03:22:42.764Z,13.30
2022-10-19T03:27:16.826Z,13.20
2022-10-19T03:31:53.478Z,13.10
2022-10-19T03:36:16.133Z,13.10
2022-10-19T03:40:31.390Z,13.10
2022-10-19T03:45:08.323Z,13.20
2022-10-19T03:49:11.644Z,13.20
2022-10-19T03:53:16.129Z,13.20
2022-10-19T03:57:50.031Z,13.10
2022-10-19T04:02:26.963Z,13.00
2022-10-19T04:06:31.618Z,12.90
2022-10-19T04:10:36.015Z,12.80
2022-10-19T04:14:56.414Z,12.80
2022-10-19T04:19:16.282Z,12.80
2022-10-19T04:23:19.321Z,12.70
2022-10-19T04:27:57.937Z,12.60
2022-10-19T04:32:31.600Z,12.50
2022-10-19T04:37:08.218Z,12.50
2022-10-19T04:41:45.410Z,12.40
2022-10-19T04:45:49.844Z,12.40
2022-10-19T04:49:52.905Z,12.40
2022-10-19T04:53:59.626Z,12.30
2022-10-19T04:58:03.073Z,12.20
2022-10-19T05:02:07.475Z,12.10
2022-10-19T05:06:41.307Z,12.00
2022-10-19T05:11:18.629Z,11.90
2022-10-19T05:15:58.816Z,11.80
2022-10-19T05:20:03.507Z,11.70
2022-10-19T05:24:40.159Z,11.60
2022-10-19T05:28:43.220Z,11.60
2022-10-19T05:32:46.289Z,11.50
2022-10-19T05:37:23.379Z,11.40
2022-10-19T05:42:01.427Z,11.30
2022-10-19T05:46:06.104Z,11.30
2022-10-19T05:50:09.714Z,11.30
2022-10-19T05:54:46.283Z,11.30
2022-10-19T05:59:24.634Z,11.40
2022-10-19T06:03:28.356Z,11.40
2022-10-19T06:07:31.663Z,11.40
2022-10-19T06:12:08.359Z,11.50
2022-10-19T06:16:47.051Z,11.60
2022-10-19T06:20:50.185Z,11.60
2022-10-19T06:24:53.187Z,11.70
2022-10-19T06:29:30.271Z,11.80
2022-10-19T06:34:08.994Z,11.90
2022-10-19T06:38:43.160Z,12.00
2022-10-19T06:42:46.186Z,12.20
2022-10-19T06:47:17.521Z,12.30
2022-10-19T06:51:56.294Z,12.50
2022-10-19T06:56:00.048Z,12.70
2022-10-19T07:00:33.830Z,12.90
2022-10-19T07:05:11.088Z,13.00
2022-10-19T07:09:46.888Z,13.30
2022-10-19T07:14:20.850Z,13.40
2022-10-19T07:18:23.878Z,13.40
2022-10-19T07:23:00.676Z,13.60
2022-10-19T07:27:40.690Z,13.90
2022-10-19T07:31:44.019Z,14.20
2022-10-19T07:36:17.883Z,14.30
2022-10-19T07:41:00.950Z,14.40
2022-10-19T07:45:31.264Z,14.60
2022-10-19T07:49:35.693Z,14.50
2022-10-19T07:54:12.569Z,14.50
2022-10-19T07:58:15.672Z,14.40
2022-10-19T08:03:04.972Z,14.60
2022-10-19T08:07:34.164Z,14.80
2022-10-19T08:12:05.410Z,14.60
2022-10-19T08:16:25.655Z,14.50
2022-10-19T08:20:28.909Z,14.50
2022-10-19T08:25:05.706Z,14.40
2022-10-19T08:29:13.615Z,14.60
2022-10-19T08:33:44.130Z,14.60
2022-10-19T08:37:47.558Z,14.60
2022-10-19T08:41:58.788Z,14.60
2022-10-19T08:46:33.780Z,14.70
2022-10-19T08:50:41.007Z,14.70
2022-10-19T08:54:51.268Z,14.80
2022-10-19T08:59:25.100Z,14.90
2022-10-19T09:04:00.375Z,15.00
2022-10-19T09:08:04.300Z,14.90
2022-10-19T09:12:42.834Z,14.50
2022-10-19T09:16:46.454Z,14.30
2022-10-19T09:20:52.825Z,14.30
2022-10-19T09:25:26.855Z,14.40
2022-10-19T09:30:05.348Z,14.40
2022-10-19T09:34:42.006Z,14.40
2022-10-19T09:39:17.378Z,14.60
2022-10-19T09:43:22.141Z,14.60
2022-10-19T09:47:34.122Z,14.80
2022-10-19T09:51:42.621Z,14.80
2022-10-19T09:56:21.310Z,14.90
2022-10-19T10:00:52.041Z,14.90
2022-10-19T10:04:58.034Z,14.90
2022-10-19T10:09:01.241Z,15.00
2022-10-19T10:13:40.841Z,15.10
2022-10-19T10:17:48.331Z,15.00
2022-10-19T10:22:25.856Z,14.90
2022-10-19T10:27:00.300Z,14.90
2022-10-19T10:31:36.913Z,14.90
2022-10-19T10:36:11.339Z,14.80
2022-10-19T10:40:52.254Z,14.80
2022-10-19T10:44:57.326Z,14.90
2022-10-19T10:49:04.537Z,14.90
2022-10-19T10:53:36.982Z,14.90
2022-10-19T10:58:16.409Z,15.00
2022-10-19T11:02:50.108Z,15.30
2022-10-19T11:07:26.182Z,15.50
2022-10-19T11:11:59.763Z,15.60
2022-10-19T11:16:39.382Z,15.60
2022-10-19T11:21:19.319Z,15.80
2022-10-19T11:26:03.462Z,15.90
2022-10-19T11:30:28.291Z,16.30
2022-10-19T11:35:15.234Z,16.50
2022-10-19T11:39:49.015Z,16.60
2022-10-19T11:44:21.824Z,16.80
2022-10-19T11:48:59.546Z,16.90
2022-10-19T11:53:28.088Z,17.40
2022-10-19T11:58:00.807Z,17.70
2022-10-19T12:02:52.015Z,17.60
2022-10-19T12:07:40.666Z,17.40
2022-10-19T12:12:38.338Z,17.50
2022-10-19T12:17:18.148Z,17.40
2022-10-19T12:21:55.235Z,17.10
2022-10-19T12:26:03.084Z,16.90
2022-10-19T12:30:09.891Z,17.00
2022-10-19T12:34:47.057Z,17.00
2022-10-19T12:39:25.680Z,17.20
2022-10-19T12:43:56.228Z,17.20
2022-10-19T12:48:32.854Z,17.10
2022-10-19T12:53:23.612Z,16.90
2022-10-19T12:57:31.403Z,16.90
2022-10-19T13:01:45.191Z,16.90
2022-10-19T13:05:57.782Z,17.00
2022-10-19T13:10:02.872Z,17.00
2022-10-19T13:14:28.344Z,17.20
2022-10-19T13:19:08.162Z,17.20
2022-10-19T13:23:42.143Z,17.10
2022-10-19T13:27:46.248Z,17.00
2022-10-19T13:32:26.635Z,17.00
2022-10-19T13:37:05.335Z,16.90
2022-10-19T13:41:45.506Z,16.80
2022-10-19T13:46:24.254Z,16.80
2022-10-19T13:51:21.901Z,16.80
2022-10-19T13:55:52.984Z,16.80
2022-10-19T14:00:14.037Z,16.80
2022-10-19T14:04:42.945Z,16.80
2022-10-19T14:09:19.686Z,16.80
2022-10-19T14:14:08.002Z,16.80
2022-10-19T14:18:25.408Z,16.90
2022-10-19T14:22:31.073Z,16.90
2022-10-19T14:27:05.975Z,16.90
2022-10-19T14:31:44.811Z,16.80
2022-10-19T14:36:19.950Z,16.70
2022-10-19T14:40:53.966Z,16.60
2022-10-19T14:45:02.482Z,16.60
2022-10-19T14:49:34.321Z,16.60
2022-10-19T14:54:32.242Z,16.60
2022-10-19T14:58:41.066Z,16.60
2022-10-19T15:02:47.740Z,16.60
2022-10-19T15:07:25.201Z,16.50
2022-10-19T15:11:31.271Z,16.40
2022-10-19T15:16:05.308Z,16.30
2022-10-19T15:20:25.358Z,16.20
2022-10-19T15:24:59.632Z,16.00
2022-10-19T15:29:10.535Z,15.90
2022-10-19T15:33:39.101Z,15.80
2022-10-19T15:38:19.758Z,15.70
2022-10-19T15:42:55.362Z,15.60
2022-10-19T15:47:31.875Z,15.50
2022-10-19T15:51:43.850Z,15.40
2022-10-19T15:56:13.612Z,15.20
2022-10-19T16:00:46.925Z,15.00
2022-10-19T16:05:25.495Z,14.80
2022-10-19T16:09:59.448Z,14.60
2022-10-19T16:14:36.796Z,14.50
2022-10-19T16:19:13.936Z,14.30
2022-10-19T16:23:52.477Z,14.00
2022-10-19T16:28:30.169Z,13.80
2022-10-19T16:33:07.244Z,13.60
2022-10-19T16:37:44.001Z,13.30
2022-10-19T16:42:24.604Z,13.00
2022-10-19T16:46:57.595Z,12.80
2022-10-19T16:51:21.107Z,12.50
2022-10-19T16:55:42.655Z,12.30
2022-10-19T17:00:21.057Z,12.20
2022-10-19T17:04:54.866Z,12.00
2022-10-19T17:09:49.759Z,11.80
2022-10-19T17:13:56.382Z,11.70
2022-10-19T17:18:00.784Z,11.50
2022-10-19T17:22:34.505Z,11.40
2022-10-19T17:27:11.673Z,11.20
2022-10-19T17:31:48.624Z,11.00
2022-10-19T17:36:28.609Z,10.80
2022-10-19T17:41:02.770Z,10.60
2022-10-19T17:45:39.671Z,10.50
2022-10-19T17:50:17.275Z,10.40
2022-10-19T17:55:12.592Z,10.30
2022-10-19T17:59:46.753Z,10.30
2022-10-19T18:04:07.580Z,10.30
2022-10-19T18:08:42.421Z,10.10
2022-10-19T18:13:17.961Z,10.10
2022-10-19T18:17:52.226Z,10.30
2022-10-19T18:22:29.031Z,10.50
2022-10-19T18:27:05.945Z,10.70
2022-10-19T18:31:44.161Z,10.70
2022-10-19T18:36:20.811Z,10.80
2022-10-19T18:40:57.396Z,11.00
2022-10-19T18:45:34.535Z,11.10
2022-10-19T18:50:13.211Z,11.10
2022-10-19T18:54:16.233Z,11.20
2022-10-19T18:58:53.292Z,11.20
2022-10-19T19:03:30.169Z,11.20
2022-10-19T19:08:08.237Z,11.20
2022-10-19T19:12:45.241Z,11.20
2022-10-19T19:17:21.915Z,11.20
2022-10-19T19:22:06.281Z,11.20
2022-10-19T19:26:39.192Z,11.10
2022-10-19T19:31:15.402Z,11.10
2022-10-19T19:35:18.783Z,11.00
2022-10-19T19:39:55.811Z,10.90
2022-10-19T19:44:34.475Z,10.80
2022-10-19T19:49:08.399Z,10.80
2022-10-19T19:53:45.438Z,10.70
2022-10-19T19:57:50.098Z,10.60
2022-10-19T20:02:25.457Z,10.60
2022-10-19T20:06:59.416Z,10.50
2022-10-19T20:11:41.237Z,10.50
2022-10-19T20:16:14.147Z,10.40
2022-10-19T20:20:49.657Z,10.40
2022-10-19T20:25:26.530Z,10.30
2022-10-19T20:30:03.487Z,10.20
2022-10-19T20:34:40.375Z,10.20
2022-10-19T20:38:49.229Z,10.20
2022-10-19T20:43:19.488Z,10.10
2022-10-19T20:47:22.583Z,10.10
2022-10-19T20:51:59.574Z,10.10
2022-10-19T20:56:24.227Z,10.00
2022-10-19T21:00:27.414Z,10.00
2022-10-19T21:04:30.418Z,10.00
2022-10-19T21:09:06.966Z,9.90
2022-10-19T21:13:11.567Z,9.90
2022-10-19T21:17:14.718Z,9.90
2022-10-19T21:21:51.919Z,9.90
2022-10-19T21:25:55.597Z,9.90
2022-10-19T21:30:00.130Z,9.80
2022-10-19T21:34:05.814Z,9.80
2022-10-19T21:38:08.823Z,9.70
2022-10-19T21:42:45.715Z,9.70
2022-10-19T21:46:50.773Z,9.60
2022-10-19T21:51:27.446Z,9.60
2022-10-19T21:55:34.435Z,9.50
2022-10-19T21:59:37.532Z,9.50
2022-10-19T22:04:16.833Z,9.40
2022-10-19T22:08:19.866Z,9.40
2022-10-19T22:12:53.673Z,9.30
2022-10-19T22:16:56.671Z,9.30
2022-10-19T22:21:05.042Z,9.30
2022-10-19T22:25:08.603Z,9.30
2022-10-19T22:29:12.022Z,9.30
2022-10-19T22:33:15.086Z,9.30
2022-10-19T22:37:19.567Z,9.30
2022-10-19T22:41:22.644Z,9.30
2022-10-19T22:45:25.679Z,9.30
2022-10-19T22:49:28.831Z,9.30
2022-10-19T22:54:07.381Z,9.20
2022-10-19T23:02:48.282Z,9.10
2022-10-19T23:06:51.475Z,9.10
2022-10-19T23:10:56.110Z,9.00
2022-10-19T23:15:27.471Z,9.00
2022-10-19T23:19:30.573Z,9.00
2022-10-19T23:23:34.763Z,9.00
2022-10-19T23:27:39.403Z,9.00
2022-10-19T23:31:43.099Z,8.90
2022-10-19T23:36:20.952Z,8.90
2022-10-19T23:40:24.105Z,8.80
2022-10-19T23:44:28.531Z,8.90
2022-10-19T23:48:31.872Z,8.80
2022-10-19T23:52:34.927Z,8.80
2022-10-19T23:57:09.086Z,8.80
